sensor_id;sensor_type;location;lat;lon;timestamp;pressure;altitude;pressure_sealevel;temperature;humidity
45525;BME280;31437;58.350;13.828;2023-03-04T00:00:17;99293.97;;;0.58;100.00
45525;BME280;31437;58.350;13.828;2023-03-04T00:02:43;99287.88;;;0.61;100.00
45525;BME280;31437;58.350;13.828;2023-03-04T00:05:08;99278.28;;;0.66;100.00
45525;BME280;31437;58.350;13.828;2023-03-04T00:07:33;99275.72;;;0.66;100.00
45525;BME280;31437;58.350;13.828;2023-03-04T00:09:58;99281.78;;;0.65;100.00
45525;BME280;31437;58.350;13.828;2023-03-04T00:12:24;99275.63;;;0.69;100.00
45525;BME280;31437;58.350;13.828;2023-03-04T00:14:49;99271.34;;;0.68;100.00
45525;BME280;31437;58.350;13.828;2023-03-04T00:17:14;99286.16;;;0.61;100.00
45525;BME280;31437;58.350;13.828;2023-03-04T00:19:40;99281.03;;;0.60;100.00
45525;BME280;31437;58.350;13.828;2023-03-04T00:22:05;99283.81;;;0.52;100.00
45525;BME280;31437;58.350;13.828;2023-03-04T00:24:30;99278.91;;;0.44;100.00
45525;BME280;31437;58.350;13.828;2023-03-04T00:26:56;99300.50;;;0.40;100.00
45525;BME280;31437;58.350;13.828;2023-03-04T00:29:21;99297.91;;;0.40;100.00
45525;BME280;31437;58.350;13.828;2023-03-04T00:31:46;99298.03;;;0.36;100.00
45525;BME280;31437;58.350;13.828;2023-03-04T00:34:12;99299.00;;;0.32;100.00
45525;BME280;31437;58.350;13.828;2023-03-04T00:36:37;99300.81;;;0.28;100.00
45525;BME280;31437;58.350;13.828;2023-03-04T00:39:02;99306.91;;;0.26;100.00
45525;BME280;31437;58.350;13.828;2023-03-04T00:41:27;99298.31;;;0.25;100.00
45525;BME280;31437;58.350;13.828;2023-03-04T00:43:53;99303.56;;;0.22;100.00
45525;BME280;31437;58.350;13.828;2023-03-04T00:46:18;99294.06;;;0.24;100.00
45525;BME280;31437;58.350;13.828;2023-03-04T00:48:43;99306.09;;;0.23;100.00
45525;BME280;31437;58.350;13.828;2023-03-04T00:51:09;99300.94;;;0.23;100.00
45525;BME280;31437;58.350;13.828;2023-03-04T00:53:34;99297.56;;;0.21;100.00
45525;BME280;31437;58.350;13.828;2023-03-04T00:55:59;99306.25;;;0.17;100.00
45525;BME280;31437;58.350;13.828;2023-03-04T00:58:24;99296.91;;;0.13;100.00
45525;BME280;31437;58.350;13.828;2023-03-04T01:00:50;99301.22;;;0.13;100.00
45525;BME280;31437;58.350;13.828;2023-03-04T01:03:15;99317.63;;;0.10;100.00
45525;BME280;31437;58.350;13.828;2023-03-04T01:05:40;99315.13;;;0.06;100.00
45525;BME280;31437;58.350;13.828;2023-03-04T01:08:05;99320.44;;;0.01;100.00
45525;BME280;31437;58.350;13.828;2023-03-04T01:10:31;99322.25;;;-0.03;100.00
45525;BME280;31437;58.350;13.828;2023-03-04T01:12:56;99324.03;;;-0.06;100.00
45525;BME280;31437;58.350;13.828;2023-03-04T01:15:22;99311.06;;;-0.03;100.00
45525;BME280;31437;58.350;13.828;2023-03-04T01:17:47;99314.75;;;-0.13;100.00
45525;BME280;31437;58.350;13.828;2023-03-04T01:20:13;99316.59;;;-0.17;100.00
45525;BME280;31437;58.350;13.828;2023-03-04T01:22:38;99323.66;;;-0.25;100.00
45525;BME280;31437;58.350;13.828;2023-03-04T01:25:04;99310.81;;;-0.28;100.00
45525;BME280;31437;58.350;13.828;2023-03-04T01:27:29;99321.22;;;-0.33;100.00
45525;BME280;31437;58.350;13.828;2023-03-04T01:29:54;99318.72;;;-0.36;100.00
45525;BME280;31437;58.350;13.828;2023-03-04T01:32:20;99319.72;;;-0.41;100.00
45525;BME280;31437;58.350;13.828;2023-03-04T01:34:45;99319.00;;;-0.47;100.00
45525;BME280;31437;58.350;13.828;2023-03-04T01:37:10;99293.31;;;-0.50;100.00
45525;BME280;31437;58.350;13.828;2023-03-04T01:39:37;99313.94;;;-0.51;100.00
45525;BME280;31437;58.350;13.828;2023-03-04T01:42:03;99317.50;;;-0.57;100.00
45525;BME280;31437;58.350;13.828;2023-03-04T01:44:28;99322.72;;;-0.60;100.00
45525;BME280;31437;58.350;13.828;2023-03-04T01:46:54;99331.44;;;-0.65;100.00
45525;BME280;31437;58.350;13.828;2023-03-04T01:49:20;99328.00;;;-0.66;100.00
45525;BME280;31437;58.350;13.828;2023-03-04T01:51:49;99339.16;;;-0.65;100.00
45525;BME280;31437;58.350;13.828;2023-03-04T01:54:16;99334.06;;;-0.69;100.00
45525;BME280;31437;58.350;13.828;2023-03-04T01:56:43;99343.59;;;-0.71;100.00
45525;BME280;31437;58.350;13.828;2023-03-04T02:01:34;99346.31;;;-0.78;100.00
45525;BME280;31437;58.350;13.828;2023-03-04T02:03:59;99351.47;;;-0.80;100.00
45525;BME280;31437;58.350;13.828;2023-03-04T02:06:25;99368.78;;;-0.86;100.00
45525;BME280;31437;58.350;13.828;2023-03-04T02:08:50;99375.81;;;-0.93;100.00
45525;BME280;31437;58.350;13.828;2023-03-04T02:11:15;99383.66;;;-0.99;100.00
45525;BME280;31437;58.350;13.828;2023-03-04T02:13:41;99389.78;;;-1.05;100.00
45525;BME280;31437;58.350;13.828;2023-03-04T02:16:06;99410.38;;;-1.06;100.00
45525;BME280;31437;58.350;13.828;2023-03-04T02:18:31;99417.38;;;-1.13;100.00
45525;BME280;31437;58.350;13.828;2023-03-04T02:28:34;99443.19;;;-1.16;100.00
45525;BME280;31437;58.350;13.828;2023-03-04T02:30:59;99437.16;;;-1.15;100.00
45525;BME280;31437;58.350;13.828;2023-03-04T02:33:25;99431.97;;;-1.13;100.00
45525;BME280;31437;58.350;13.828;2023-03-04T02:35:50;99456.00;;;-1.13;100.00
45525;BME280;31437;58.350;13.828;2023-03-04T02:38:15;99448.31;;;-1.16;100.00
45525;BME280;31437;58.350;13.828;2023-03-04T02:40:41;99462.94;;;-1.17;100.00
45525;BME280;31437;58.350;13.828;2023-03-04T02:43:09;99473.19;;;-1.15;100.00
45525;BME280;31437;58.350;13.828;2023-03-04T02:45:37;99467.97;;;-1.12;100.00
45525;BME280;31437;58.350;13.828;2023-03-04T02:48:03;99480.84;;;-1.12;100.00
45525;BME280;31437;58.350;13.828;2023-03-04T02:50:29;99471.47;;;-1.15;100.00
45525;BME280;31437;58.350;13.828;2023-03-04T02:52:57;99496.41;;;-1.18;100.00
45525;BME280;31437;58.350;13.828;2023-03-04T02:55:22;99497.31;;;-1.21;100.00
45525;BME280;31437;58.350;13.828;2023-03-04T02:57:47;99509.38;;;-1.24;100.00
45525;BME280;31437;58.350;13.828;2023-03-04T03:00:13;99510.31;;;-1.28;100.00
45525;BME280;31437;58.350;13.828;2023-03-04T03:02:38;99495.72;;;-1.28;100.00
45525;BME280;31437;58.350;13.828;2023-03-04T03:05:03;99446.78;;;-1.25;100.00
45525;BME280;31437;58.350;13.828;2023-03-04T03:07:29;99475.06;;;-1.23;100.00
45525;BME280;31437;58.350;13.828;2023-03-04T03:09:54;99445.81;;;-1.21;100.00
45525;BME280;31437;58.350;13.828;2023-03-04T03:12:19;99421.81;;;-1.20;100.00
45525;BME280;31437;58.350;13.828;2023-03-04T03:14:45;99403.84;;;-1.24;100.00
45525;BME280;31437;58.350;13.828;2023-03-04T03:17:10;99397.91;;;-1.26;100.00
45525;BME280;31437;58.350;13.828;2023-03-04T03:19:35;99379.91;;;-1.28;100.00
45525;BME280;31437;58.350;13.828;2023-03-04T03:22:01;99368.78;;;-1.28;100.00
45525;BME280;31437;58.350;13.828;2023-03-04T03:24:26;99376.50;;;-1.30;100.00
45525;BME280;31437;58.350;13.828;2023-03-04T03:26:51;99383.44;;;-1.32;100.00
45525;BME280;31437;58.350;13.828;2023-03-04T03:29:16;99374.88;;;-1.34;100.00
45525;BME280;31437;58.350;13.828;2023-03-04T03:31:42;99379.19;;;-1.34;100.00
45525;BME280;31437;58.350;13.828;2023-03-04T03:34:07;99372.31;;;-1.35;100.00
45525;BME280;31437;58.350;13.828;2023-03-04T03:36:32;99367.19;;;-1.35;100.00
45525;BME280;31437;58.350;13.828;2023-03-04T03:38:58;99368.97;;;-1.39;100.00
45525;BME280;31437;58.350;13.828;2023-03-04T03:41:23;99376.72;;;-1.41;100.00
45525;BME280;31437;58.350;13.828;2023-03-04T03:43:48;99381.03;;;-1.41;100.00
45525;BME280;31437;58.350;13.828;2023-03-04T03:46:13;99381.06;;;-1.44;100.00
45525;BME280;31437;58.350;13.828;2023-03-04T03:48:39;99388.03;;;-1.49;100.00
45525;BME280;31437;58.350;13.828;2023-03-04T03:51:04;99386.41;;;-1.55;100.00
45525;BME280;31437;58.350;13.828;2023-03-04T03:53:29;99411.28;;;-1.55;100.00
45525;BME280;31437;58.350;13.828;2023-03-04T03:55:56;99422.47;;;-1.58;100.00
45525;BME280;31437;58.350;13.828;2023-03-04T03:58:23;99379.53;;;-1.54;100.00
45525;BME280;31437;58.350;13.828;2023-03-04T04:00:48;99381.28;;;-1.56;100.00
45525;BME280;31437;58.350;13.828;2023-03-04T04:03:14;99377.03;;;-1.59;100.00
45525;BME280;31437;58.350;13.828;2023-03-04T04:05:39;99393.47;;;-1.65;100.00
45525;BME280;31437;58.350;13.828;2023-03-04T04:08:05;99382.41;;;-1.71;100.00
45525;BME280;31437;58.350;13.828;2023-03-04T04:10:30;99374.72;;;-1.73;100.00
45525;BME280;31437;58.350;13.828;2023-03-04T04:12:56;99387.63;;;-1.76;100.00
45525;BME280;31437;58.350;13.828;2023-03-04T04:15:21;99390.22;;;-1.76;100.00
45525;BME280;31437;58.350;13.828;2023-03-04T04:17:46;99386.81;;;-1.79;100.00
45525;BME280;31437;58.350;13.828;2023-03-04T04:20:11;99384.28;;;-1.81;100.00
45525;BME280;31437;58.350;13.828;2023-03-04T04:22:37;99392.84;;;-1.80;100.00
45525;BME280;31437;58.350;13.828;2023-03-04T04:25:02;99386.03;;;-1.83;100.00
45525;BME280;31437;58.350;13.828;2023-03-04T04:27:28;99384.34;;;-1.84;100.00
45525;BME280;31437;58.350;13.828;2023-03-04T04:29:54;99397.16;;;-1.83;100.00
45525;BME280;31437;58.350;13.828;2023-03-04T04:32:19;99406.53;;;-1.78;100.00
45525;BME280;31437;58.350;13.828;2023-03-04T04:34:44;99403.13;;;-1.80;100.00
45525;BME280;31437;58.350;13.828;2023-03-04T04:37:10;99410.94;;;-1.85;100.00
45525;BME280;31437;58.350;13.828;2023-03-04T04:39:35;99418.72;;;-1.90;100.00
45525;BME280;31437;58.350;13.828;2023-03-04T04:42:00;99428.16;;;-1.90;100.00
45525;BME280;31437;58.350;13.828;2023-03-04T04:44:25;99401.59;;;-1.92;100.00
45525;BME280;31437;58.350;13.828;2023-03-04T04:46:51;99431.63;;;-1.94;100.00
45525;BME280;31437;58.350;13.828;2023-03-04T04:49:16;99434.25;;;-1.97;100.00
45525;BME280;31437;58.350;13.828;2023-03-04T04:51:41;99432.59;;;-2.01;100.00
45525;BME280;31437;58.350;13.828;2023-03-04T04:54:07;99434.41;;;-2.08;100.00
45525;BME280;31437;58.350;13.828;2023-03-04T04:56:32;99431.06;;;-2.13;100.00
45525;BME280;31437;58.350;13.828;2023-03-04T04:58:59;99445.63;;;-2.14;100.00
45525;BME280;31437;58.350;13.828;2023-03-04T05:01:24;99455.03;;;-2.13;100.00
45525;BME280;31437;58.350;13.828;2023-03-04T05:03:50;99436.25;;;-2.16;100.00
45525;BME280;31437;58.350;13.828;2023-03-04T05:06:17;99449.09;;;-2.16;100.00
45525;BME280;31437;58.350;13.828;2023-03-04T05:08:42;99426.03;;;-2.21;100.00
45525;BME280;31437;58.350;13.828;2023-03-04T05:11:08;99444.09;;;-2.27;100.00
45525;BME280;31437;58.350;13.828;2023-03-04T05:13:33;99428.69;;;-2.27;100.00
45525;BME280;31437;58.350;13.828;2023-03-04T05:15:59;99422.72;;;-2.29;100.00
45525;BME280;31437;58.350;13.828;2023-03-04T05:18:25;99434.75;;;-2.33;100.00
45525;BME280;31437;58.350;13.828;2023-03-04T05:20:54;99432.25;;;-2.39;100.00
45525;BME280;31437;58.350;13.828;2023-03-04T05:23:21;99438.28;;;-2.41;100.00
45525;BME280;31437;58.350;13.828;2023-03-04T05:25:46;99428.09;;;-2.46;100.00
45525;BME280;31437;58.350;13.828;2023-03-04T05:28:12;99447.84;;;-2.51;100.00
45525;BME280;31437;58.350;13.828;2023-03-04T05:30:38;99436.78;;;-2.55;100.00
45525;BME280;31437;58.350;13.828;2023-03-04T05:33:04;99435.97;;;-2.58;100.00
45525;BME280;31437;58.350;13.828;2023-03-04T05:35:29;99404.31;;;-2.59;100.00
45525;BME280;31437;58.350;13.828;2023-03-04T05:37:55;99431.69;;;-2.58;100.00
45525;BME280;31437;58.350;13.828;2023-03-04T05:40:20;99434.28;;;-2.61;100.00
45525;BME280;31437;58.350;13.828;2023-03-04T05:42:45;99422.38;;;-2.66;100.00
45525;BME280;31437;58.350;13.828;2023-03-04T05:45:11;99423.22;;;-2.66;100.00
45525;BME280;31437;58.350;13.828;2023-03-04T05:47:36;99436.06;;;-2.66;100.00
45525;BME280;31437;58.350;13.828;2023-03-04T05:50:01;99443.78;;;-2.69;100.00
45525;BME280;31437;58.350;13.828;2023-03-04T05:52:26;99448.13;;;-2.74;100.00
45525;BME280;31437;58.350;13.828;2023-03-04T05:54:52;99439.66;;;-2.79;100.00
45525;BME280;31437;58.350;13.828;2023-03-04T05:57:17;99443.94;;;-2.83;100.00
45525;BME280;31437;58.350;13.828;2023-03-04T05:59:42;99444.00;;;-2.86;100.00
45525;BME280;31437;58.350;13.828;2023-03-04T06:02:07;99446.59;;;-2.87;100.00
45525;BME280;31437;58.350;13.828;2023-03-04T06:04:33;99433.75;;;-2.87;100.00
45525;BME280;31437;58.350;13.828;2023-03-04T06:06:58;99446.63;;;-2.90;100.00
45525;BME280;31437;58.350;13.828;2023-03-04T06:09:23;99447.47;;;-2.91;100.00
45525;BME280;31437;58.350;13.828;2023-03-04T06:11:49;99436.31;;;-2.89;100.00
45525;BME280;31437;58.350;13.828;2023-03-04T06:14:14;99438.88;;;-2.87;100.00
45525;BME280;31437;58.350;13.828;2023-03-04T06:16:39;99440.59;;;-2.88;100.00
45525;BME280;31437;58.350;13.828;2023-03-04T06:19:05;99439.78;;;-2.91;100.00
45525;BME280;31437;58.350;13.828;2023-03-04T06:21:30;99452.63;;;-2.94;100.00
45525;BME280;31437;58.350;13.828;2023-03-04T06:23:55;99439.84;;;-2.96;100.00
45525;BME280;31437;58.350;13.828;2023-03-04T06:26:21;99441.56;;;-2.97;100.00
45525;BME280;31437;58.350;13.828;2023-03-04T06:28:46;99439.00;;;-2.98;100.00
45525;BME280;31437;58.350;13.828;2023-03-04T06:31:11;99442.41;;;-2.98;100.00
45525;BME280;31437;58.350;13.828;2023-03-04T06:33:37;99458.69;;;-3.00;100.00
45525;BME280;31437;58.350;13.828;2023-03-04T06:36:02;99447.56;;;-2.99;100.00
45525;BME280;31437;58.350;13.828;2023-03-04T06:38:27;99460.41;;;-3.01;100.00
45525;BME280;31437;58.350;13.828;2023-03-04T06:40:53;99458.69;;;-2.99;100.00
45525;BME280;31437;58.350;13.828;2023-03-04T06:43:18;99415.06;;;-2.97;100.00
45525;BME280;31437;58.350;13.828;2023-03-04T06:45:43;99461.22;;;-2.94;100.00
45525;BME280;31437;58.350;13.828;2023-03-04T06:48:09;99456.09;;;-2.94;100.00
45525;BME280;31437;58.350;13.828;2023-03-04T06:50:34;99474.00;;;-2.92;100.00
45525;BME280;31437;58.350;13.828;2023-03-04T06:53:00;99456.00;;;-2.89;100.00
45525;BME280;31437;58.350;13.828;2023-03-04T06:55:25;99486.78;;;-2.85;100.00
45525;BME280;31437;58.350;13.828;2023-03-04T06:57:50;99472.09;;;-2.75;100.00
45525;BME280;31437;58.350;13.828;2023-03-04T07:00:16;99474.56;;;-2.66;100.00
45525;BME280;31437;58.350;13.828;2023-03-04T07:02:41;99457.50;;;-2.70;100.00
45525;BME280;31437;58.350;13.828;2023-03-04T07:05:08;99498.59;;;-2.71;100.00
45525;BME280;31437;58.350;13.828;2023-03-04T07:07:33;99448.16;;;-2.12;100.00
45525;BME280;31437;58.350;13.828;2023-03-04T07:09:58;99473.78;;;-1.50;100.00
45525;BME280;31437;58.350;13.828;2023-03-04T07:12:24;99472.97;;;-1.52;100.00
45525;BME280;31437;58.350;13.828;2023-03-04T07:14:51;99476.00;;;-1.81;100.00
45525;BME280;31437;58.350;13.828;2023-03-04T07:17:16;99481.34;;;-1.40;100.00
45525;BME280;31437;58.350;13.828;2023-03-04T07:19:42;99489.28;;;-1.02;100.00
45525;BME280;31437;58.350;13.828;2023-03-04T07:22:07;99469.44;;;-0.54;100.00
45525;BME280;31437;58.350;13.828;2023-03-04T07:24:32;99485.06;;;-0.19;100.00
45525;BME280;31437;58.350;13.828;2023-03-04T07:26:58;99468.13;;;0.08;100.00
45525;BME280;31437;58.350;13.828;2023-03-04T07:29:23;99478.72;;;0.33;100.00
45525;BME280;31437;58.350;13.828;2023-03-04T07:31:48;99476.13;;;-0.05;100.00
45525;BME280;31437;58.350;13.828;2023-03-04T07:34:14;99477.44;;;0.15;100.00
45525;BME280;31437;58.350;13.828;2023-03-04T07:36:39;99461.25;;;-0.31;100.00
45525;BME280;31437;58.350;13.828;2023-03-04T07:39:05;99489.59;;;-0.31;100.00
45525;BME280;31437;58.350;13.828;2023-03-04T07:41:31;99485.00;;;-0.16;100.00
45525;BME280;31437;58.350;13.828;2023-03-04T07:44:00;99499.69;;;-0.63;100.00
45525;BME280;31437;58.350;13.828;2023-03-04T07:46:26;99503.81;;;-0.55;100.00
45525;BME280;31437;58.350;13.828;2023-03-04T07:48:51;99496.81;;;-0.93;100.00
45525;BME280;31437;58.350;13.828;2023-03-04T07:51:18;99499.94;;;-0.32;100.00
45525;BME280;31437;58.350;13.828;2023-03-04T07:53:44;99503.69;;;-0.07;100.00
45525;BME280;31437;58.350;13.828;2023-03-04T07:56:10;99509.72;;;0.31;100.00
45525;BME280;31437;58.350;13.828;2023-03-04T07:58:39;99508.84;;;-0.47;100.00
45525;BME280;31437;58.350;13.828;2023-03-04T08:01:09;99501.22;;;-0.11;100.00
45525;BME280;31437;58.350;13.828;2023-03-04T08:03:35;99496.22;;;-0.19;100.00
45525;BME280;31437;58.350;13.828;2023-03-04T08:06:02;99509.16;;;-0.20;100.00
45525;BME280;31437;58.350;13.828;2023-03-04T08:08:28;99502.88;;;-0.09;100.00
45525;BME280;31437;58.350;13.828;2023-03-04T08:10:54;99503.63;;;0.34;100.00
45525;BME280;31437;58.350;13.828;2023-03-04T08:13:20;99505.75;;;0.54;100.00
45525;BME280;31437;58.350;13.828;2023-03-04T08:15:45;99512.78;;;0.83;100.00
45525;BME280;31437;58.350;13.828;2023-03-04T08:18:11;99516.25;;;0.46;100.00
45525;BME280;31437;58.350;13.828;2023-03-04T08:20:36;99484.00;;;0.28;100.00
45525;BME280;31437;58.350;13.828;2023-03-04T08:23:05;99506.16;;;0.35;100.00
45525;BME280;31437;58.350;13.828;2023-03-04T08:25:30;99505.69;;;0.19;100.00
45525;BME280;31437;58.350;13.828;2023-03-04T08:27:55;99530.59;;;0.20;100.00
45525;BME280;31437;58.350;13.828;2023-03-04T08:30:21;99500.69;;;0.12;100.00
45525;BME280;31437;58.350;13.828;2023-03-04T08:32:46;99534.63;;;-0.07;100.00
45525;BME280;31437;58.350;13.828;2023-03-04T08:35:11;99520.88;;;-0.07;100.00
45525;BME280;31437;58.350;13.828;2023-03-04T08:37:36;99504.72;;;-0.15;100.00
45525;BME280;31437;58.350;13.828;2023-03-04T08:40:02;99510.56;;;-0.06;100.00
45525;BME280;31437;58.350;13.828;2023-03-04T08:42:27;99516.63;;;-0.08;100.00
45525;BME280;31437;58.350;13.828;2023-03-04T08:44:53;99508.97;;;-0.11;100.00
45525;BME280;31437;58.350;13.828;2023-03-04T08:47:18;99514.53;;;0.08;100.00
45525;BME280;31437;58.350;13.828;2023-03-04T08:49:43;99507.28;;;0.23;100.00
45525;BME280;31437;58.350;13.828;2023-03-04T08:52:08;99517.38;;;0.36;100.00
45525;BME280;31437;58.350;13.828;2023-03-04T08:54:34;99526.94;;;0.31;100.00
45525;BME280;31437;58.350;13.828;2023-03-04T08:56:59;99504.56;;;0.31;100.00
45525;BME280;31437;58.350;13.828;2023-03-04T08:59:24;99488.44;;;0.21;100.00
45525;BME280;31437;58.350;13.828;2023-03-04T09:01:49;99517.75;;;0.17;100.00
45525;BME280;31437;58.350;13.828;2023-03-04T09:04:15;99516.22;;;0.09;100.00
45525;BME280;31437;58.350;13.828;2023-03-04T09:06:40;99518.16;;;-0.01;100.00
45525;BME280;31437;58.350;13.828;2023-03-04T09:09:06;99514.47;;;0.12;100.00
45525;BME280;31437;58.350;13.828;2023-03-04T09:11:31;99530.94;;;0.05;100.00
45525;BME280;31437;58.350;13.828;2023-03-04T09:13:56;99522.28;;;0.08;100.00
45525;BME280;31437;58.350;13.828;2023-03-04T09:16:22;99526.63;;;0.06;100.00
45525;BME280;31437;58.350;13.828;2023-03-04T09:18:47;99518.94;;;0.04;100.00
45525;BME280;31437;58.350;13.828;2023-03-04T09:21:12;99524.97;;;0.03;100.00
45525;BME280;31437;58.350;13.828;2023-03-04T09:23:38;99513.91;;;-0.02;100.00
45525;BME280;31437;58.350;13.828;2023-03-04T09:26:14;99527.34;;;-0.28;100.00
45525;BME280;31437;58.350;13.828;2023-03-04T09:28:39;99522.41;;;-0.39;100.00
45525;BME280;31437;58.350;13.828;2023-03-04T09:31:11;99513.00;;;-0.41;100.00
45525;BME280;31437;58.350;13.828;2023-03-04T09:33:37;99509.69;;;-0.48;100.00
45525;BME280;31437;58.350;13.828;2023-03-04T09:36:02;99505.25;;;-0.40;100.00
45525;BME280;31437;58.350;13.828;2023-03-04T09:38:28;99499.19;;;-0.39;100.00
45525;BME280;31437;58.350;13.828;2023-03-04T09:40:53;99530.88;;;-0.32;100.00
45525;BME280;31437;58.350;13.828;2023-03-04T09:43:19;99518.22;;;-0.44;100.00
45525;BME280;31437;58.350;13.828;2023-03-04T09:45:47;99506.91;;;-0.37;100.00
45525;BME280;31437;58.350;13.828;2023-03-04T09:48:15;99502.72;;;-0.43;100.00
45525;BME280;31437;58.350;13.828;2023-03-04T09:50:44;99520.78;;;-0.43;100.00
45525;BME280;31437;58.350;13.828;2023-03-04T09:53:19;99508.53;;;-0.32;100.00
45525;BME280;31437;58.350;13.828;2023-03-04T09:55:48;99517.75;;;-0.21;100.00
45525;BME280;31437;58.350;13.828;2023-03-04T10:08:18;99506.66;;;-0.27;100.00
45525;BME280;31437;58.350;13.828;2023-03-04T10:10:48;99512.50;;;-0.17;100.00
45525;BME280;31437;58.350;13.828;2023-03-04T10:13:17;99504.63;;;-0.11;100.00
45525;BME280;31437;58.350;13.828;2023-03-04T10:15:45;99510.50;;;-0.04;100.00
45525;BME280;31437;58.350;13.828;2023-03-04T10:20:57;99499.84;;;-0.28;100.00
45525;BME280;31437;58.350;13.828;2023-03-04T10:23:25;99488.47;;;-0.19;100.00
45525;BME280;31437;58.350;13.828;2023-03-04T10:25:51;99491.75;;;-0.12;100.00
45525;BME280;31437;58.350;13.828;2023-03-04T10:28:39;99493.63;;;-0.17;100.00
45525;BME280;31437;58.350;13.828;2023-03-04T10:33:30;99501.16;;;-0.08;100.00
45525;BME280;31437;58.350;13.828;2023-03-04T10:38:27;99506.66;;;-0.25;100.00
45525;BME280;31437;58.350;13.828;2023-03-04T10:40:53;99492.81;;;-0.21;100.00
45525;BME280;31437;58.350;13.828;2023-03-04T10:43:19;99490.97;;;-0.14;100.00
45525;BME280;31437;58.350;13.828;2023-03-04T10:45:45;99493.34;;;-0.05;100.00
45525;BME280;31437;58.350;13.828;2023-03-04T10:48:18;99496.69;;;0.00;100.00
45525;BME280;31437;58.350;13.828;2023-03-04T10:50:44;99479.34;;;0.07;100.00
45525;BME280;31437;58.350;13.828;2023-03-04T10:53:19;99492.19;;;0.08;100.00
45525;BME280;31437;58.350;13.828;2023-03-04T10:55:47;99489.88;;;-0.04;100.00
45525;BME280;31437;58.350;13.828;2023-03-04T10:58:13;99494.31;;;-0.11;100.00
45525;BME280;31437;58.350;13.828;2023-03-04T11:00:39;99499.38;;;-0.06;100.00
45525;BME280;31437;58.350;13.828;2023-03-04T11:05:49;99485.75;;;-0.11;100.00
45525;BME280;31437;58.350;13.828;2023-03-04T11:08:21;99484.72;;;-0.04;100.00
45525;BME280;31437;58.350;13.828;2023-03-04T11:10:47;99496.84;;;-0.09;100.00
45525;BME280;31437;58.350;13.828;2023-03-04T11:18:14;99492.44;;;-0.03;99.70
45525;BME280;31437;58.350;13.828;2023-03-04T11:20:40;99493.09;;;0.06;100.00
45525;BME280;31437;58.350;13.828;2023-03-04T11:23:11;99500.25;;;-0.07;99.09
45525;BME280;31437;58.350;13.828;2023-03-04T11:31:03;99468.69;;;-0.17;97.91
45525;BME280;31437;58.350;13.828;2023-03-04T11:38:58;99479.84;;;-0.16;97.80
45525;BME280;31437;58.350;13.828;2023-03-04T11:41:25;99489.31;;;-0.18;97.76
45525;BME280;31437;58.350;13.828;2023-03-04T11:43:54;99467.94;;;-0.22;97.47
45525;BME280;31437;58.350;13.828;2023-03-04T11:52:03;99474.59;;;-0.13;97.57
45525;BME280;31437;58.350;13.828;2023-03-04T11:59:56;99457.19;;;-0.04;97.41
45525;BME280;31437;58.350;13.828;2023-03-04T12:02:38;99454.53;;;-0.01;97.44
45525;BME280;31437;58.350;13.828;2023-03-04T12:07:43;99449.38;;;-0.01;96.75
45525;BME280;31437;58.350;13.828;2023-03-04T12:17:35;99420.72;;;0.13;96.43
45525;BME280;31437;58.350;13.828;2023-03-04T12:25:34;99431.84;;;0.15;95.63
45525;BME280;31437;58.350;13.828;2023-03-04T12:44:01;99396.53;;;0.17;93.75
45525;BME280;31437;58.350;13.828;2023-03-04T12:56:47;99404.06;;;0.27;92.86
45525;BME280;31437;58.350;13.828;2023-03-04T12:59:15;99402.34;;;0.26;92.66
45525;BME280;31437;58.350;13.828;2023-03-04T13:01:42;99405.84;;;0.23;92.44
45525;BME280;31437;58.350;13.828;2023-03-04T13:09:46;99392.03;;;0.26;92.46
45525;BME280;31437;58.350;13.828;2023-03-04T13:12:13;99403.28;;;0.23;92.22
45525;BME280;31437;58.350;13.828;2023-03-04T13:14:40;99387.03;;;0.19;92.22
45525;BME280;31437;58.350;13.828;2023-03-04T13:20:17;99393.00;;;0.21;91.95
45525;BME280;31437;58.350;13.828;2023-03-04T13:51:16;99373.31;;;0.17;92.08
45525;BME280;31437;58.350;13.828;2023-03-04T13:53:47;99375.81;;;0.20;92.10
45525;BME280;31437;58.350;13.828;2023-03-04T13:58:42;99361.91;;;0.26;92.39
45525;BME280;31437;58.350;13.828;2023-03-04T14:02:09;99362.78;;;0.27;92.21
45525;BME280;31437;58.350;13.828;2023-03-04T14:04:09;99359.34;;;0.26;92.16
45525;BME280;31437;58.350;13.828;2023-03-04T14:06:39;99357.72;;;0.22;92.09
45525;BME280;31437;58.350;13.828;2023-03-04T14:09:11;99354.34;;;0.20;91.71
45525;BME280;31437;58.350;13.828;2023-03-04T14:11:40;99357.00;;;0.17;91.48
45525;BME280;31437;58.350;13.828;2023-03-04T14:14:07;99347.59;;;0.14;91.69
45525;BME280;31437;58.350;13.828;2023-03-04T14:16:37;99345.06;;;0.13;91.63
45525;BME280;31437;58.350;13.828;2023-03-04T14:19:03;99340.78;;;0.12;91.55
45525;BME280;31437;58.350;13.828;2023-03-04T14:21:30;99339.91;;;0.13;91.48
45525;BME280;31437;58.350;13.828;2023-03-04T14:24:00;99343.34;;;0.13;91.70
45525;BME280;31437;58.350;13.828;2023-03-04T14:26:26;99337.41;;;0.10;91.81
45525;BME280;31437;58.350;13.828;2023-03-04T14:28:51;99337.56;;;0.04;91.52
45525;BME280;31437;58.350;13.828;2023-03-04T14:31:21;99343.63;;;0.01;91.42
45525;BME280;31437;58.350;13.828;2023-03-04T14:33:48;99322.19;;;-0.01;91.26
45525;BME280;31437;58.350;13.828;2023-03-04T14:36:15;99317.13;;;-0.04;90.82
45525;BME280;31437;58.350;13.828;2023-03-04T14:38:41;99326.69;;;-0.09;90.31
45525;BME280;31437;58.350;13.828;2023-03-04T14:41:17;99326.81;;;-0.14;89.98
45525;BME280;31437;58.350;13.828;2023-03-04T14:43:54;99334.63;;;-0.17;89.86
45525;BME280;31437;58.350;13.828;2023-03-04T14:46:21;99327.81;;;-0.19;89.66
45525;BME280;31437;58.350;13.828;2023-03-04T14:48:52;99332.16;;;-0.21;89.52
45525;BME280;31437;58.350;13.828;2023-03-04T14:54:02;99321.22;;;-0.31;89.10
45525;BME280;31437;58.350;13.828;2023-03-04T14:56:28;99311.88;;;-0.35;88.99
45525;BME280;31437;58.350;13.828;2023-03-04T14:58:54;99320.47;;;-0.36;89.09
45525;BME280;31437;58.350;13.828;2023-03-04T15:01:22;99322.28;;;-0.40;89.07